Time;durP1;ratioP1;P1;durP2;ratioP2;P2;SDS_P1;SDS_P2;PMS_P1;PMS_P2;Temp;Humidity;BMP_temperature;BMP_pressure;BME280_temperature;BME280_humidity;BME280_pressure;Samples;Min_cycle;Max_cycle;Signal;HPM_P1;HPM_P2
2022/01/01 00:01:49;;;;;;;7.28;6.18;;;15.00;90.20;;;;;;10414566;28;20053;-74
2022/01/01 00:06:51;;;;;;;8.07;6.53;;;15.00;90.20;;;;;;10414426;28;20053;-74
2022/01/01 00:11:52;;;;;;;8.85;6.70;;;15.00;90.20;;;;;;10414488;28;20042;-74
2022/01/01 00:16:54;;;;;;;7.28;6.57;;;15.00;90.20;;;;;;10414126;28;20072;-74
2022/01/01 00:21:55;;;;;;;8.63;7.43;;;15.00;90.20;;;;;;10413986;28;20048;-75
2022/01/01 00:26:57;;;;;;;10.85;7.63;;;15.00;90.20;;;;;;10413358;28;20054;-74
2022/01/01 00:31:58;;;;;;;8.85;7.70;;;15.00;90.20;;;;;;10413824;28;20054;-75
2022/01/01 00:37:00;;;;;;;8.45;7.18;;;15.00;90.20;;;;;;10413531;28;20133;-74
2022/01/01 00:42:01;;;;;;;8.48;7.53;;;15.00;90.30;;;;;;10413805;28;20054;-75
2022/01/01 00:47:03;;;;;;;10.60;8.02;;;15.00;90.30;;;;;;10412921;28;20049;-75
2022/01/01 00:52:04;;;;;;;9.35;8.35;;;15.00;90.30;;;;;;10413373;28;20053;-74
2022/01/01 00:57:06;;;;;;;10.38;8.88;;;15.00;90.30;;;;;;10413124;28;20045;-74
2022/01/01 01:02:07;;;;;;;10.60;8.65;;;14.90;90.30;;;;;;10413041;28;20064;-74
2022/01/01 01:07:12;;;;;;;10.95;8.60;;;14.90;90.20;;;;;;10448243;28;20055;-75
2022/01/01 01:12:13;;;;;;;10.15;8.80;;;15.00;90.30;;;;;;10453673;28;20432;-72
2022/01/01 01:17:15;;;;;;;10.82;8.75;;;14.90;90.30;;;;;;10453392;28;20049;-72
2022/01/01 01:22:16;;;;;;;10.90;8.20;;;14.90;90.30;;;;;;10453660;28;20048;-73
2022/01/01 01:27:18;;;;;;;10.38;8.57;;;14.90;90.30;;;;;;10453502;28;20052;-74
2022/01/01 01:32:19;;;;;;;10.35;8.63;;;15.00;90.30;;;;;;10454028;28;20041;-74
2022/01/01 01:37:23;;;;;;;11.07;9.15;;;14.90;90.30;;;;;;10458815;28;20045;-73
2022/01/01 01:42:25;;;;;;;11.15;9.13;;;14.90;90.30;;;;;;10461828;28;20127;-74
2022/01/01 01:47:30;;;;;;;11.25;9.02;;;14.90;90.30;;;;;;10461487;28;20083;-74
2022/01/01 01:52:33;;;;;;;11.45;9.43;;;14.90;90.30;;;;;;10461250;28;20109;-73
2022/01/01 01:57:35;;;;;;;11.43;9.05;;;14.90;90.30;;;;;;10461106;28;20068;-73
2022/01/01 02:02:36;;;;;;;12.07;9.77;;;14.90;90.30;;;;;;10460867;28;20052;-74
2022/01/01 02:07:38;;;;;;;11.82;9.55;;;14.90;90.30;;;;;;10460676;28;20111;-73
2022/01/01 02:12:41;;;;;;;9.95;8.82;;;14.90;90.30;;;;;;10460361;28;20494;-73
2022/01/01 02:17:42;;;;;;;11.23;9.15;;;14.90;90.30;;;;;;10460208;28;20049;-73
2022/01/01 02:22:47;;;;;;;11.98;9.10;;;14.90;90.30;;;;;;10460022;28;20069;-74
2022/01/01 02:27:49;;;;;;;10.93;9.32;;;14.80;90.30;;;;;;10460057;28;20060;-74
2022/01/01 02:32:50;;;;;;;10.05;8.30;;;14.90;90.30;;;;;;10459823;28;20052;-73
2022/01/01 02:37:52;;;;;;;10.75;9.13;;;14.80;90.30;;;;;;10459237;28;20048;-74
2022/01/01 02:42:54;;;;;;;12.10;9.02;;;14.90;90.30;;;;;;10459457;28;20506;-73
2022/01/01 02:47:56;;;;;;;11.13;9.02;;;14.80;90.30;;;;;;10458232;28;20056;-73
2022/01/01 02:52:57;;;;;;;11.75;9.40;;;14.80;90.30;;;;;;10459017;28;20049;-73
2022/01/01 02:57:59;;;;;;;11.20;9.65;;;14.80;90.30;;;;;;10458647;28;20052;-73
2022/01/01 03:03:00;;;;;;;10.68;8.80;;;14.80;90.50;;;;;;10433809;28;20058;-74
2022/01/01 03:08:02;;;;;;;11.10;8.60;;;14.80;90.30;;;;;;10416926;28;20465;-74
2022/01/01 03:13:03;;;;;;;10.77;9.55;;;14.80;90.30;;;;;;10416760;28;20517;-73
2022/01/01 03:18:04;;;;;;;9.95;8.90;;;14.80;90.30;;;;;;10416648;28;20046;-74
2022/01/01 03:23:06;;;;;;;10.30;8.85;;;14.80;90.30;;;;;;10416468;28;20486;-74
2022/01/01 03:28:07;;;;;;;10.68;8.93;;;14.80;90.30;;;;;;10416349;28;20410;-74
2022/01/01 03:33:09;;;;;;;11.73;9.43;;;14.80;90.30;;;;;;10415827;28;20408;-74
2022/01/01 03:38:10;;;;;;;11.55;9.65;;;14.80;90.30;;;;;;10416119;28;20050;-74
2022/01/01 03:43:12;;;;;;;12.00;9.57;;;14.80;90.30;;;;;;10415779;28;20042;-74
2022/01/01 03:48:13;;;;;;;12.35;9.57;;;14.80;90.30;;;;;;10415021;28;20465;-73
2022/01/01 03:53:16;;;;;;;12.43;9.30;;;14.80;90.40;;;;;;10416064;28;20453;-74
2022/01/01 03:58:17;;;;;;;12.23;9.82;;;14.70;90.30;;;;;;10414418;28;20076;-73
2022/01/01 04:03:19;;;;;;;11.40;10.07;;;14.80;90.40;;;;;;10453327;28;20057;-73
2022/01/01 04:08:20;;;;;;;11.88;9.52;;;14.70;90.30;;;;;;10455945;28;20132;-73
2022/01/01 04:13:22;;;;;;;13.88;10.00;;;14.70;90.40;;;;;;10455511;28;20052;-73
2022/01/01 04:18:29;;;;;;;12.30;9.65;;;14.70;90.30;;;;;;10455602;28;20045;-73
2022/01/01 04:23:31;;;;;;;12.95;10.10;;;14.70;90.40;;;;;;10455274;28;20551;-73
2022/01/01 04:28:32;;;;;;;14.20;10.55;;;14.70;90.40;;;;;;10455010;28;20395;-73
2022/01/01 04:33:34;;;;;;;12.13;9.65;;;14.70;90.40;;;;;;10454964;28;20406;-73
2022/01/01 04:38:40;;;;;;;13.82;10.63;;;14.70;90.40;;;;;;10454870;28;20490;-73
2022/01/01 04:43:41;;;;;;;;;;;14.70;90.40;;;;;;10455475;28;20049;-74
2022/01/01 04:48:43;;;;;;;13.40;11.00;;;14.70;90.30;;;;;;10454108;28;19920;-74
2022/01/01 04:53:45;;;;;;;14.75;10.85;;;14.70;90.50;;;;;;10454417;28;20502;-73
2022/01/01 04:58:47;;;;;;;15.63;11.45;;;14.70;90.40;;;;;;10453895;28;20045;-73
2022/01/01 05:03:48;;;;;;;13.27;10.38;;;14.70;90.40;;;;;;10453913;28;20045;-73
2022/01/01 05:08:49;;;;;;;12.75;10.55;;;14.70;90.40;;;;;;10453873;28;20064;-74
2022/01/01 05:13:51;;;;;;;13.30;10.15;;;14.70;90.40;;;;;;10453246;28;20112;-73
2022/01/01 05:18:52;;;;;;;14.73;10.98;;;14.70;90.40;;;;;;10453804;28;20055;-73
2022/01/01 05:23:54;;;;;;;12.70;10.57;;;14.70;90.40;;;;;;10453638;28;20045;-73
2022/01/01 05:28:55;;;;;;;15.45;11.02;;;14.70;90.40;;;;;;10453711;28;20045;-73
2022/01/01 05:33:57;;;;;;;15.18;11.57;;;14.70;90.40;;;;;;10453439;28;20051;-73
2022/01/01 05:38:58;;;;;;;13.35;10.98;;;14.60;90.40;;;;;;10453846;28;20041;-73
2022/01/01 05:44:00;;;;;;;13.80;10.73;;;14.70;90.40;;;;;;10453512;28;20049;-73
2022/01/01 05:49:01;;;;;;;14.98;11.20;;;14.60;90.40;;;;;;10452726;28;20049;-73
2022/01/01 05:54:03;;;;;;;13.13;11.27;;;14.60;90.40;;;;;;10453322;28;20477;-72
2022/01/01 05:59:04;;;;;;;13.15;10.27;;;14.70;90.40;;;;;;10453291;28;20045;-73
2022/01/01 06:04:06;;;;;;;13.63;10.90;;;14.60;90.40;;;;;;10452899;28;20555;-73
2022/01/01 06:09:07;;;;;;;13.07;10.45;;;14.60;90.40;;;;;;10452788;28;20444;-73
2022/01/01 06:14:09;;;;;;;13.93;10.45;;;14.60;90.40;;;;;;10452629;28;20456;-73
2022/01/01 06:19:10;;;;;;;13.80;11.00;;;14.60;90.30;;;;;;10452547;28;20049;-73
2022/01/01 06:24:12;;;;;;;14.75;11.60;;;14.60;90.40;;;;;;10456971;28;20044;-71
2022/01/01 06:29:13;;;;;;;14.50;11.50;;;14.60;90.40;;;;;;10459587;28;20413;-73
2022/01/01 06:34:15;;;;;;;14.85;11.70;;;14.60;90.40;;;;;;10459600;28;20049;-73
2022/01/01 06:39:16;;;;;;;12.98;11.02;;;14.60;90.40;;;;;;10459488;28;20555;-73
2022/01/01 06:44:18;;;;;;;13.73;10.90;;;14.60;90.60;;;;;;10459334;28;20426;-73
2022/01/01 06:49:19;;;;;;;14.32;11.32;;;14.60;90.40;;;;;;10458660;28;20059;-73
2022/01/01 06:54:21;;;;;;;12.65;10.60;;;14.60;90.40;;;;;;10459275;28;20044;-72
2022/01/01 06:59:22;;;;;;;14.23;10.98;;;14.50;90.40;;;;;;10458419;28;20056;-73
2022/01/01 07:04:24;;;;;;;14.00;10.93;;;14.50;90.40;;;;;;10458418;28;20410;-73
2022/01/01 07:09:25;;;;;;;13.73;11.23;;;14.60;90.40;;;;;;10458162;28;20403;-74
2022/01/01 07:14:27;;;;;;;15.60;11.35;;;14.60;90.40;;;;;;10457945;28;20410;-73
2022/01/01 07:19:28;;;;;;;13.75;11.20;;;14.50;90.30;;;;;;10457902;28;20090;-73
2022/01/01 07:24:30;;;;;;;12.93;10.98;;;14.50;90.40;;;;;;10457576;28;20055;-73
2022/01/01 07:29:31;;;;;;;14.77;11.48;;;14.60;90.40;;;;;;10457833;28;20052;-73
2022/01/01 07:34:32;;;;;;;16.08;12.25;;;14.50;90.40;;;;;;10457103;28;20049;-73
2022/01/01 07:39:34;;;;;;;15.57;11.75;;;14.50;90.40;;;;;;10456966;28;20045;-73
2022/01/01 07:44:35;;;;;;;14.35;11.55;;;14.50;90.40;;;;;;10457264;28;20123;-72
2022/01/01 07:49:37;;;;;;;15.00;11.93;;;14.50;90.40;;;;;;10456450;28;20052;-73
2022/01/01 07:54:38;;;;;;;13.38;11.05;;;14.50;90.40;;;;;;10456618;28;20053;-74
2022/01/01 07:59:40;;;;;;;13.68;11.70;;;14.50;90.30;;;;;;10456247;28;20053;-73
2022/01/01 08:04:41;;;;;;;16.20;11.77;;;14.50;90.40;;;;;;10455900;28;20049;-73
2022/01/01 08:09:43;;;;;;;13.15;11.07;;;14.50;90.40;;;;;;10455953;28;20049;-74
2022/01/01 08:14:44;;;;;;;14.13;11.05;;;14.50;90.30;;;;;;10455701;28;20056;-74
2022/01/01 08:19:46;;;;;;;14.02;10.77;;;14.50;90.30;;;;;;10455484;28;20044;-74
2022/01/01 08:24:47;;;;;;;13.13;11.07;;;14.50;90.30;;;;;;10455207;28;20073;-74
2022/01/01 08:29:49;;;;;;;13.95;11.32;;;14.50;90.30;;;;;;10454600;28;20049;-73
2022/01/01 08:34:52;;;;;;;12.77;11.02;;;14.50;90.40;;;;;;10455049;28;20482;-73
2022/01/01 08:39:53;;;;;;;13.45;11.00;;;14.50;90.30;;;;;;10455294;28;20072;-73
2022/01/01 08:44:55;;;;;;;12.68;10.40;;;14.50;90.30;;;;;;10454334;28;20055;-73
2022/01/01 08:49:56;;;;;;;13.57;10.57;;;14.50;90.30;;;;;;10454057;28;20060;-73
2022/01/01 08:54:59;;;;;;;13.57;10.48;;;14.50;90.30;;;;;;10426423;28;20291;-73
2022/01/01 09:00:01;;;;;;;11.77;9.80;;;14.50;90.30;;;;;;10413247;28;20418;-73
2022/01/01 09:05:02;;;;;;;12.90;10.50;;;14.50;90.30;;;;;;10412681;28;20406;-73
2022/01/01 09:10:04;;;;;;;11.63;9.98;;;14.50;90.30;;;;;;10412727;28;20049;-73
2022/01/01 09:15:05;;;;;;;14.07;10.70;;;14.50;90.30;;;;;;10412610;28;20517;-74
2022/01/01 09:20:07;;;;;;;12.77;10.27;;;14.50;90.30;;;;;;10412530;28;20225;-74
2022/01/01 09:25:08;;;;;;;13.52;10.73;;;14.50;90.30;;;;;;10412438;28;20053;-72
2022/01/01 09:30:10;;;;;;;11.52;10.18;;;14.50;90.30;;;;;;10412224;28;20053;-74
2022/01/01 09:35:13;;;;;;;12.30;10.00;;;14.40;90.30;;;;;;10412400;28;20050;-73
2022/01/01 09:40:14;;;;;;;12.95;10.55;;;14.50;90.30;;;;;;10411878;28;20054;-73
2022/01/01 09:45:16;;;;;;;13.00;10.45;;;14.50;90.30;;;;;;10412068;28;20509;-74
2022/01/01 09:50:17;;;;;;;12.13;9.38;;;14.40;90.30;;;;;;10412053;28;20430;-74
2022/01/01 09:55:19;;;;;;;12.07;9.75;;;14.40;90.30;;;;;;10453136;28;20409;-74
2022/01/01 10:00:20;;;;;;;11.75;10.00;;;14.40;90.30;;;;;;10461045;28;20053;-73
2022/01/01 10:05:21;;;;;;;11.98;9.68;;;14.50;90.30;;;;;;10460648;28;20045;-73
2022/01/01 10:10:23;;;;;;;10.05;8.73;;;14.50;90.30;;;;;;10460435;28;20052;-73
2022/01/01 10:15:24;;;;;;;11.85;9.82;;;14.40;90.20;;;;;;10460310;28;20045;-74
2022/01/01 10:20:26;;;;;;;10.68;9.23;;;14.50;90.20;;;;;;10460077;28;20045;-73
2022/01/01 10:30:47;;;;;;;11.68;9.93;;;14.50;90.20;;;;;;10459681;28;20045;-73
2022/01/01 10:35:48;;;;;;;10.38;9.20;;;14.50;90.20;;;;;;10459516;28;20379;-73
2022/01/01 10:40:50;;;;;;;11.88;9.45;;;14.50;90.20;;;;;;10459241;28;20415;-74
2022/01/01 10:45:51;;;;;;;9.98;8.27;;;14.50;90.20;;;;;;10459275;28;20048;-74
2022/01/01 10:50:53;;;;;;;11.35;9.30;;;14.50;90.20;;;;;;10458370;28;20525;-73
2022/01/01 10:55:54;;;;;;;10.45;9.02;;;14.50;90.20;;;;;;10459003;28;20127;-74
2022/01/01 11:00:56;;;;;;;10.35;9.07;;;14.50;90.20;;;;;;10458558;28;20045;-74
2022/01/01 11:05:57;;;;;;;9.70;8.70;;;14.50;90.20;;;;;;10458497;28;20056;-73
2022/01/01 11:10:59;;;;;;;11.30;9.02;;;14.50;90.20;;;;;;10457657;28;20053;-73
2022/01/01 11:16:00;;;;;;;9.70;8.70;;;14.50;90.20;;;;;;10457909;28;20068;-73
2022/01/01 11:21:02;;;;;;;10.32;8.82;;;14.50;90.20;;;;;;10457943;28;20486;-74
2022/01/01 11:26:03;;;;;;;10.05;8.43;;;14.50;90.20;;;;;;10457707;28;20045;-73
2022/01/01 11:31:06;;;;;;;10.75;8.60;;;14.50;90.10;;;;;;10457430;28;20460;-73
2022/01/01 11:36:07;;;;;;;9.90;8.40;;;14.50;90.20;;;;;;10457194;28;20041;-74
2022/01/01 11:41:09;;;;;;;9.48;7.90;;;14.50;90.10;;;;;;10457088;28;20041;-73
2022/01/01 11:46:11;;;;;;;8.75;7.82;;;14.50;90.10;;;;;;10457086;28;20041;-73
2022/01/01 11:51:12;;;;;;;8.60;7.70;;;14.50;90.10;;;;;;10456034;28;20049;-73
2022/01/01 11:56:14;;;;;;;9.40;8.32;;;14.50;90.10;;;;;;10456689;28;20041;-74
2022/01/01 12:01:15;;;;;;;8.90;7.95;;;14.50;90.10;;;;;;10456539;28;20107;-73
2022/01/01 12:06:17;;;;;;;8.85;7.95;;;14.60;90.10;;;;;;10455948;28;20084;-73
2022/01/01 12:11:18;;;;;;;8.82;7.63;;;14.50;90.10;;;;;;10456036;28;20064;-73
2022/01/01 12:16:20;;;;;;;8.65;7.75;;;14.50;90.10;;;;;;10455496;28;20049;-73
2022/01/01 12:21:22;;;;;;;8.93;7.70;;;14.50;90.10;;;;;;10454564;28;20482;-73
2022/01/01 12:26:24;;;;;;;9.35;7.72;;;14.50;90.10;;;;;;10455401;28;20084;-73
2022/01/01 12:31:25;;;;;;;9.43;7.80;;;14.50;90.10;;;;;;10455068;28;20060;-73
2022/01/01 12:36:27;;;;;;;8.45;7.60;;;14.50;90.10;;;;;;10454999;28;20402;-74
2022/01/01 12:41:28;;;;;;;8.45;7.25;;;14.50;90.10;;;;;;10454741;28;20060;-74
2022/01/01 12:46:30;;;;;;;8.25;6.95;;;14.50;90.10;;;;;;10454451;28;20056;-74
2022/01/01 12:51:33;;;;;;;7.57;6.88;;;14.50;90.10;;;;;;10454412;28;20060;-74
2022/01/01 12:56:35;;;;;;;8.98;7.00;;;14.50;90.10;;;;;;10454715;28;20051;-74
2022/01/01 13:01:37;;;;;;;8.30;7.20;;;14.50;90.10;;;;;;10453932;28;20056;-73
2022/01/01 13:06:38;;;;;;;7.40;6.60;;;14.50;90.10;;;;;;10453688;28;20045;-74
2022/01/01 13:11:40;;;;;;;9.27;7.30;;;14.50;90.10;;;;;;10453881;28;20044;-74
2022/01/01 13:16:41;;;;;;;8.48;7.43;;;14.50;90.10;;;;;;10453453;28;20056;-74
2022/01/01 13:21:42;;;;;;;8.43;7.25;;;14.50;90.10;;;;;;10453712;28;20052;-73
2022/01/01 13:26:44;;;;;;;8.05;6.70;;;14.50;90.10;;;;;;10453641;28;20052;-74
2022/01/01 13:31:45;;;;;;;7.15;6.45;;;14.50;90.10;;;;;;10456245;28;20441;-74
2022/01/01 13:36:47;;;;;;;8.02;6.57;;;14.50;90.10;;;;;;10461880;28;20486;-74
2022/01/01 13:41:48;;;;;;;8.27;6.55;;;14.50;90.10;;;;;;10461451;28;20482;-73
2022/01/01 13:46:50;;;;;;;7.53;6.65;;;14.50;90.10;;;;;;10461209;28;20059;-72
2022/01/01 13:51:51;;;;;;;6.97;6.22;;;14.50;90.10;;;;;;10461383;28;20041;-74
2022/01/01 13:56:53;;;;;;;7.20;6.50;;;14.50;90.10;;;;;;10460796;28;20056;-73
2022/01/01 14:01:54;;;;;;;7.55;6.78;;;14.50;90.10;;;;;;10460349;28;20493;-73
2022/01/01 14:06:56;;;;;;;6.80;6.10;;;14.50;90.10;;;;;;10460432;28;20056;-73
2022/01/01 14:11:57;;;;;;;6.97;6.25;;;14.50;90.10;;;;;;10460644;28;20045;-74
2022/01/01 14:16:59;;;;;;;7.22;6.53;;;14.50;90.10;;;;;;10460068;28;20053;-73
2022/01/01 14:22:00;;;;;;;7.55;6.47;;;14.50;90.10;;;;;;10460031;28;20056;-73
2022/01/01 14:27:02;;;;;;;6.82;6.18;;;14.50;90.10;;;;;;10459791;28;20409;-74
2022/01/01 14:32:03;;;;;;;6.55;5.50;;;14.50;90.10;;;;;;10459487;28;20041;-74
2022/01/01 14:37:05;;;;;;;6.72;5.97;;;14.50;90.10;;;;;;10459534;28;20045;-73
2022/01/01 14:42:06;;;;;;;6.22;5.60;;;14.50;90.10;;;;;;10458310;28;20060;-73
2022/01/01 14:47:08;;;;;;;7.38;6.18;;;14.50;90.00;;;;;;10458469;28;20041;-74
2022/01/01 14:52:09;;;;;;;6.40;5.80;;;14.50;90.00;;;;;;10458998;28;20049;-73
2022/01/01 14:57:12;;;;;;;6.55;5.85;;;14.50;90.00;;;;;;10459205;28;20045;-73
2022/01/01 15:02:14;;;;;;;6.13;5.53;;;14.50;90.00;;;;;;10458519;28;20049;-72
2022/01/01 15:07:16;;;;;;;7.57;6.00;;;14.50;90.00;;;;;;10458147;28;20056;-72
2022/01/01 15:12:18;;;;;;;6.28;5.60;;;14.50;90.10;;;;;;10457995;28;20110;-73
2022/01/01 15:17:19;;;;;;;6.32;5.50;;;14.40;90.10;;;;;;10457581;28;20231;-72
2022/01/01 15:22:21;;;;;;;6.68;5.38;;;14.50;90.10;;;;;;10457979;28;20076;-73
2022/01/01 15:27:22;;;;;;;5.95;5.35;;;14.40;90.10;;;;;;10457721;28;20056;-72
2022/01/01 15:37:50;;;;;;;5.57;4.82;;;14.40;90.20;;;;;;10457310;28;20032;-73
2022/01/01 15:42:51;;;;;;;5.93;5.32;;;14.40;90.10;;;;;;10456842;28;20387;-73
2022/01/01 15:47:53;;;;;;;5.55;5.05;;;14.40;90.10;;;;;;10456580;28;20387;-72
2022/01/01 15:52:54;;;;;;;5.63;4.95;;;14.40;90.10;;;;;;10456649;28;20402;-73
2022/01/01 15:57:56;;;;;;;5.80;5.20;;;14.40;90.10;;;;;;10456699;28;20044;-72
2022/01/01 16:02:57;;;;;;;5.65;4.97;;;14.40;90.10;;;;;;10456091;28;20461;-72
2022/01/01 16:07:59;;;;;;;5.80;4.75;;;14.40;90.10;;;;;;10455956;28;20533;-73
2022/01/01 16:13:01;;;;;;;5.68;5.00;;;14.40;90.10;;;;;;10456049;28;20072;-73
2022/01/01 16:18:02;;;;;;;5.88;5.18;;;14.30;90.10;;;;;;10455462;28;20056;-73
2022/01/01 16:23:04;;;;;;;5.25;4.47;;;14.40;90.10;;;;;;10455720;28;20045;-73
2022/01/01 16:28:05;;;;;;;6.57;5.05;;;14.30;90.10;;;;;;10455319;28;20088;-73
2022/01/01 16:33:07;;;;;;;5.85;5.03;;;14.40;90.10;;;;;;10454947;28;20045;-74
2022/01/01 16:38:08;;;;;;;5.32;4.57;;;14.30;90.10;;;;;;10455415;28;20048;-73
2022/01/01 16:43:11;;;;;;;5.30;4.80;;;14.30;90.10;;;;;;10454509;28;20061;-74
2022/01/01 16:48:13;;;;;;;5.43;4.90;;;14.30;90.10;;;;;;10454327;28;20052;-73
2022/01/01 16:53:14;;;;;;;4.63;4.15;;;14.30;90.10;;;;;;10454293;28;20443;-73
2022/01/01 16:58:16;;;;;;;5.25;4.60;;;14.30;90.10;;;;;;10454196;28;20045;-73
2022/01/01 17:03:17;;;;;;;4.68;4.25;;;14.30;90.10;;;;;;10454009;28;20124;-73
2022/01/01 17:08:19;;;;;;;4.60;4.13;;;14.30;90.10;;;;;;10453391;28;20057;-74
2022/01/01 17:13:21;;;;;;;4.57;4.18;;;14.30;90.10;;;;;;10454101;28;20045;-74
2022/01/01 17:18:23;;;;;;;5.20;4.15;;;14.30;90.10;;;;;;10453480;28;20059;-73
2022/01/01 17:23:25;;;;;;;4.40;4.00;;;14.30;90.40;;;;;;10453698;28;20049;-74
2022/01/01 17:28:26;;;;;;;4.72;4.32;;;14.30;90.10;;;;;;10453478;28;20407;-74
2022/01/01 17:33:33;;;;;;;4.38;3.97;;;14.30;90.10;;;;;;10453359;28;20051;-74
2022/01/01 17:43:53;;;;;;;4.90;4.47;;;14.30;90.10;;;;;;10400903;28;20426;-74
2022/01/01 17:49:01;;;;;;;4.13;3.72;;;14.30;90.10;;;;;;10411644;28;20053;-74
2022/01/01 17:54:03;;;;;;;4.30;3.90;;;14.30;90.10;;;;;;10412260;28;20121;-74
2022/01/01 17:59:04;;;;;;;4.50;4.10;;;14.30;90.10;;;;;;10411823;28;20056;-73
2022/01/01 18:04:06;;;;;;;4.88;4.15;;;14.30;90.30;;;;;;10411560;28;20054;-73
2022/01/01 18:09:08;;;;;;;4.05;3.60;;;14.30;90.10;;;;;;10411522;28;20045;-73
2022/01/01 18:14:09;;;;;;;4.35;3.95;;;14.30;90.20;;;;;;10411730;28;20061;-72
2022/01/01 18:19:11;;;;;;;4.20;3.80;;;14.30;90.20;;;;;;10414239;28;20056;-73
2022/01/01 18:24:12;;;;;;;3.83;3.47;;;14.30;90.10;;;;;;10419155;28;20052;-74
2022/01/01 18:29:14;;;;;;;4.05;3.55;;;14.30;90.10;;;;;;10418949;28;20056;-74
2022/01/01 18:34:15;;;;;;;4.43;3.83;;;14.20;90.10;;;;;;10418977;28;20049;-74
2022/01/01 18:39:17;;;;;;;3.85;3.50;;;14.30;90.20;;;;;;10433407;28;20056;-73
2022/01/01 18:44:19;;;;;;;4.43;3.45;;;14.20;90.10;;;;;;10459857;28;20052;-73
2022/01/01 18:49:20;;;;;;;3.90;3.50;;;14.20;90.20;;;;;;10459135;28;20056;-73
2022/01/01 18:54:23;;;;;;;4.05;3.50;;;14.20;90.10;;;;;;10459503;28;20052;-73
2022/01/01 18:59:24;;;;;;;3.75;3.33;;;14.20;90.10;;;;;;10458916;28;20128;-74
2022/01/01 19:04:26;;;;;;;3.78;3.47;;;14.20;90.40;;;;;;10458584;28;20056;-74
2022/01/01 19:09:27;;;;;;;4.05;3.50;;;14.20;90.20;;;;;;10458261;28;20049;-73
2022/01/01 19:14:29;;;;;;;4.07;3.38;;;14.20;90.20;;;;;;10458359;28;20513;-74
2022/01/01 19:19:31;;;;;;;3.28;2.92;;;14.20;90.20;;;;;;10457689;28;20548;-73
2022/01/01 19:24:33;;;;;;;3.45;3.15;;;14.20;90.20;;;;;;10457971;28;20052;-73
2022/01/01 19:29:34;;;;;;;3.58;2.97;;;14.20;90.20;;;;;;10457506;28;20049;-73
2022/01/01 19:34:36;;;;;;;3.47;3.17;;;14.20;90.20;;;;;;10457699;28;20049;-74
2022/01/01 19:39:37;;;;;;;3.00;2.80;;;14.20;90.20;;;;;;10457222;28;20041;-73
2022/01/01 19:44:39;;;;;;;3.50;3.10;;;14.20;90.20;;;;;;10457110;28;20478;-74
2022/01/01 19:49:40;;;;;;;4.07;3.60;;;14.20;90.20;;;;;;10456574;28;20429;-74
2022/01/01 19:54:42;;;;;;;3.42;3.10;;;14.20;90.20;;;;;;10456694;28;20044;-73
2022/01/01 19:59:43;;;;;;;3.35;3.03;;;14.20;90.20;;;;;;10456192;28;20041;-74
2022/01/01 20:04:45;;;;;;;3.30;3.00;;;14.20;90.20;;;;;;10455997;28;20056;-74
2022/01/01 20:09:46;;;;;;;3.20;2.90;;;14.20;90.20;;;;;;10455906;28;20064;-73
2022/01/01 20:14:48;;;;;;;3.92;3.30;;;14.20;90.20;;;;;;10455970;28;20049;-74
2022/01/01 20:19:49;;;;;;;3.75;3.35;;;14.20;90.20;;;;;;10455963;28;20049;-73
2022/01/01 20:24:51;;;;;;;3.38;3.08;;;14.20;90.20;;;;;;10455663;28;20084;-73
2022/01/01 20:29:55;;;;;;;3.50;3.20;;;14.20;90.30;;;;;;10455285;28;20048;-73
2022/01/01 20:34:56;;;;;;;3.40;3.08;;;14.20;90.30;;;;;;10453459;28;20049;-74
2022/01/01 20:39:58;;;;;;;3.08;2.80;;;14.20;90.20;;;;;;10413572;28;20052;-73
2022/01/01 20:44:59;;;;;;;3.08;2.75;;;14.20;90.20;;;;;;10413495;28;20395;-74
2022/01/01 20:50:01;;;;;;;2.60;2.40;;;14.20;90.20;;;;;;10413303;28;20053;-74
2022/01/01 20:55:03;;;;;;;3.60;2.70;;;14.10;90.20;;;;;;10413088;28;20068;-73
2022/01/01 21:00:04;;;;;;;3.05;2.75;;;14.10;90.20;;;;;;10412877;28;20045;-73
2022/01/01 21:05:06;;;;;;;3.20;2.90;;;14.10;90.20;;;;;;10412826;28;20491;-74
2022/01/01 21:10:07;;;;;;;3.05;2.75;;;14.10;90.20;;;;;;10412752;28;20509;-74
2022/01/01 21:15:09;;;;;;;2.95;2.65;;;14.10;90.20;;;;;;10412764;28;20045;-73
2022/01/01 21:20:11;;;;;;;2.92;2.53;;;14.10;90.20;;;;;;10412234;28;20072;-73
2022/01/01 21:25:12;;;;;;;2.53;2.33;;;14.10;90.20;;;;;;10412646;28;20087;-74
2022/01/01 21:30:14;;;;;;;2.90;2.60;;;14.10;90.20;;;;;;10412572;28;20136;-74
2022/01/01 21:35:16;;;;;;;2.70;2.50;;;14.10;90.20;;;;;;10428150;28;20056;-74
2022/01/01 21:40:17;;;;;;;3.20;2.90;;;14.10;90.20;;;;;;10453457;28;20460;-74
2022/01/01 21:45:18;;;;;;;3.20;2.30;;;14.20;90.20;;;;;;10453260;28;20506;-74
2022/01/01 21:50:20;;;;;;;2.97;2.55;;;14.10;90.20;;;;;;10452908;28;20486;-74
2022/01/01 21:55:22;;;;;;;2.83;2.40;;;14.10;90.20;;;;;;10459782;28;20049;-73
2022/01/01 22:00:23;;;;;;;3.00;2.70;;;14.10;90.20;;;;;;10460905;28;20399;-74
2022/01/01 22:05:25;;;;;;;2.90;2.67;;;14.10;90.20;;;;;;10461134;28;20077;-74
2022/01/01 22:10:26;;;;;;;3.00;2.70;;;14.10;90.20;;;;;;10460682;28;20053;-74
2022/01/01 22:15:28;;;;;;;2.72;2.42;;;14.10;90.20;;;;;;10460926;28;20052;-74
2022/01/01 22:20:29;;;;;;;2.63;2.15;;;14.10;90.20;;;;;;10460256;28;20052;-74
2022/01/01 22:25:31;;;;;;;2.65;2.33;;;14.10;90.20;;;;;;10460654;28;20041;-73
2022/01/01 22:30:32;;;;;;;2.80;2.28;;;14.10;90.20;;;;;;10460047;28;20049;-73
2022/01/01 22:35:34;;;;;;;3.35;2.20;;;14.10;90.20;;;;;;10429465;28;20046;-73
2022/01/01 22:40:35;;;;;;;2.97;2.60;;;14.10;90.20;;;;;;10418604;28;20057;-73
2022/01/01 22:45:37;;;;;;;3.00;2.70;;;14.10;90.20;;;;;;10418146;28;20053;-72
2022/01/01 22:50:38;;;;;;;2.60;2.40;;;14.10;90.20;;;;;;10417909;28;20316;-73
2022/01/01 22:55:41;;;;;;;2.65;2.30;;;14.10;90.20;;;;;;10417889;28;20049;-73
2022/01/01 23:00:43;;;;;;;2.38;2.17;;;14.10;90.20;;;;;;10417319;28;20072;-74
2022/01/01 23:05:44;;;;;;;2.20;2.00;;;14.10;90.20;;;;;;10416902;28;20053;-74
2022/01/01 23:10:45;;;;;;;2.13;1.92;;;14.10;90.20;;;;;;10417170;28;20049;-73
2022/01/01 23:15:51;;;;;;;2.00;1.80;;;14.10;90.20;;;;;;10417264;28;20052;-73
2022/01/01 23:20:52;;;;;;;2.65;2.28;;;14.10;90.20;;;;;;10416750;28;20115;-73
2022/01/01 23:25:55;;;;;;;2.55;2.25;;;14.10;90.20;;;;;;10416981;28;20053;-73
2022/01/01 23:30:57;;;;;;;2.38;2.10;;;14.10;90.10;;;;;;10419719;28;20493;-73
2022/01/01 23:35:59;;;;;;;2.42;2.22;;;14.10;90.20;;;;;;10457473;28;20045;-73
2022/01/01 23:41:02;;;;;;;2.40;2.20;;;14.00;90.20;;;;;;10457556;28;20053;-72
2022/01/01 23:46:09;;;;;;;2.35;2.15;;;14.00;90.10;;;;;;10457118;28;20552;-73
2022/01/01 23:51:11;;;;;;;2.30;2.10;;;14.00;90.10;;;;;;10456892;28;20045;-73
2022/01/01 23:56:12;;;;;;;2.28;2.08;;;14.00;90.10;;;;;;10456826;28;20135;-73
